Time;durP1;ratioP1;P1;durP2;ratioP2;P2;SDS_P1;SDS_P2;PMS_P1;PMS_P2;Temp;Humidity;BMP_temperature;BMP_pressure;BME280_temperature;BME280_humidity;BME280_pressure;Samples;Min_cycle;Max_cycle;Signal;HPM_P1;HPM_P2
2021/05/11 00:00:31;;;;;;;2.40;2.20;;;19.30;33.10;;;;;;5014925;28;20436;-73
2021/05/11 00:02:57;;;;;;;2.27;2.17;;;19.30;33.00;;;;;;5013970;28;20807;-73
2021/05/11 00:05:28;;;;;;;2.13;2.10;;;19.30;33.00;;;;;;5013539;28;20411;-73
2021/05/11 00:07:55;;;;;;;2.73;2.53;;;19.30;33.00;;;;;;5013465;28;20165;-73
2021/05/11 00:10:21;;;;;;;2.40;2.30;;;19.30;33.00;;;;;;5012124;28;20482;-73
2021/05/11 00:12:47;;;;;;;2.30;2.20;;;19.30;33.00;;;;;;5013697;28;20978;-73
2021/05/11 00:15:13;;;;;;;2.43;2.33;;;19.30;33.00;;;;;;5013138;28;20555;-73
2021/05/11 00:17:40;;;;;;;2.90;2.80;;;19.30;33.00;;;;;;5013318;28;20181;-73
2021/05/11 00:20:06;;;;;;;2.80;2.70;;;19.30;33.00;;;;;;5013120;28;20432;-73
2021/05/11 00:22:32;;;;;;;2.37;2.27;;;19.30;32.90;;;;;;5013187;28;20828;-73
2021/05/11 00:24:57;;;;;;;2.17;2.07;;;19.30;32.90;;;;;;5011908;28;20423;-74
2021/05/11 00:27:23;;;;;;;2.30;2.20;;;19.30;32.90;;;;;;5012959;28;20656;-73
2021/05/11 00:29:48;;;;;;;2.70;2.60;;;19.20;32.90;;;;;;5012872;28;20634;-73
2021/05/11 00:32:14;;;;;;;2.37;2.37;;;19.30;32.90;;;;;;5013148;28;20200;-73
2021/05/11 00:34:39;;;;;;;2.63;2.53;;;19.20;32.90;;;;;;5011722;28;20549;-73
2021/05/11 00:37:05;;;;;;;2.50;2.40;;;19.30;32.90;;;;;;5012742;28;20208;-74
2021/05/11 00:39:31;;;;;;;2.33;2.23;;;19.20;32.80;;;;;;5012832;28;20201;-74
2021/05/11 00:41:56;;;;;;;2.20;2.10;;;19.20;32.80;;;;;;5012864;28;20205;-73
2021/05/11 00:44:24;;;;;;;2.47;2.37;;;19.20;32.80;;;;;;5011571;28;20182;-73
2021/05/11 00:46:58;;;;;;;2.40;2.30;;;19.20;32.80;;;;;;5012705;28;20177;-73
2021/05/11 00:49:29;;;;;;;2.50;2.40;;;19.20;32.80;;;;;;5012635;28;20820;-73
2021/05/11 00:51:55;;;;;;;2.20;2.20;;;19.20;32.80;;;;;;5012760;28;20927;-73
2021/05/11 00:54:21;;;;;;;2.50;2.40;;;19.20;32.80;;;;;;5012749;28;20780;-73
2021/05/11 00:56:47;;;;;;;2.20;2.10;;;19.20;32.80;;;;;;5012589;28;20435;-73
2021/05/11 00:59:24;;;;;;;2.40;2.30;;;19.20;32.70;;;;;;5012556;28;20432;-73
2021/05/11 01:01:49;;;;;;;2.50;2.40;;;19.20;32.70;;;;;;5012731;28;20502;-73
2021/05/11 01:04:15;;;;;;;2.00;2.00;;;19.20;32.70;;;;;;5012541;28;20464;-73
2021/05/11 01:06:41;;;;;;;2.50;2.40;;;19.20;32.70;;;;;;5012452;28;20170;-74
2021/05/11 01:09:07;;;;;;;2.03;2.03;;;19.20;32.70;;;;;;5012445;28;20283;-73
2021/05/11 01:11:35;;;;;;;2.40;2.30;;;19.20;32.70;;;;;;5012528;28;20451;-73
2021/05/11 01:14:01;;;;;;;2.90;2.80;;;19.20;32.70;;;;;;5012344;28;20169;-73
2021/05/11 01:16:29;;;;;;;2.53;2.43;;;19.20;32.80;;;;;;5012226;28;20788;-73
2021/05/11 01:19:06;;;;;;;2.57;2.47;;;19.20;33.40;;;;;;5010938;28;20447;-73
2021/05/11 01:21:51;;;;;;;2.40;2.30;;;19.20;32.70;;;;;;5012345;28;20981;-74
2021/05/11 01:24:24;;;;;;;2.70;2.60;;;19.20;32.60;;;;;;5012177;28;20419;-73
2021/05/11 01:27:04;;;;;;;2.60;2.50;;;19.20;32.70;;;;;;5012087;28;20405;-73
2021/05/11 01:29:36;;;;;;;2.70;2.60;;;19.20;32.70;;;;;;5011974;28;20447;-73
2021/05/11 01:48:30;;;;;;;2.37;2.33;;;19.10;32.60;;;;;;5018522;28;20491;-73
2021/05/11 01:56:12;;;;;;;2.40;2.30;;;19.20;32.60;;;;;;5018431;28;20458;-73
2021/05/11 02:18:13;;;;;;;2.50;2.43;;;19.10;32.50;;;;;;5018504;28;20411;-73
2021/05/11 02:23:23;;;;;;;2.50;2.40;;;19.10;32.40;;;;;;5018243;28;20462;-73
2021/05/11 02:25:48;;;;;;;2.30;2.20;;;19.10;32.50;;;;;;5018101;28;20415;-73
2021/05/11 02:28:14;;;;;;;2.00;2.00;;;19.20;32.50;;;;;;5018125;28;20546;-73
2021/05/11 02:30:39;;;;;;;2.30;2.20;;;19.10;32.40;;;;;;5018055;28;20208;-73
2021/05/11 02:33:05;;;;;;;2.30;2.30;;;19.10;32.40;;;;;;5018264;28;20576;-73
2021/05/11 02:35:30;;;;;;;2.30;2.30;;;19.10;32.40;;;;;;5017884;28;20177;-73
2021/05/11 02:37:56;;;;;;;2.33;2.23;;;19.10;32.50;;;;;;5018200;28;20181;-73
2021/05/11 02:40:22;;;;;;;2.77;2.67;;;19.10;32.50;;;;;;5016800;28;20201;-74
2021/05/11 02:42:52;;;;;;;2.77;2.67;;;19.10;32.50;;;;;;5018105;28;20208;-73
2021/05/11 02:45:18;;;;;;;2.60;2.50;;;19.10;32.40;;;;;;5017797;28;20408;-73
2021/05/11 02:47:50;;;;;;;2.70;2.60;;;19.10;32.50;;;;;;5018071;28;20408;-73
2021/05/11 02:50:20;;;;;;;2.63;2.53;;;19.10;32.50;;;;;;5017963;28;20186;-73
2021/05/11 02:52:46;;;;;;;2.40;2.30;;;19.10;32.50;;;;;;5015109;28;20424;-73
2021/05/11 02:55:13;;;;;;;2.50;2.40;;;19.10;32.50;;;;;;5013407;28;20432;-74
2021/05/11 02:57:39;;;;;;;2.40;2.30;;;19.10;32.50;;;;;;5013620;28;20416;-73
2021/05/11 03:00:06;;;;;;;2.50;2.40;;;19.10;32.50;;;;;;5013409;28;20436;-74
2021/05/11 03:02:32;;;;;;;2.87;2.77;;;19.10;32.50;;;;;;5013507;28;20204;-72
2021/05/11 03:04:57;;;;;;;2.40;2.30;;;19.10;32.50;;;;;;5014691;28;20412;-74
2021/05/11 03:07:23;;;;;;;2.43;2.33;;;19.10;32.50;;;;;;5014458;28;20173;-73
2021/05/11 03:09:49;;;;;;;2.30;2.20;;;19.10;32.40;;;;;;5014699;28;20197;-74
2021/05/11 03:12:14;;;;;;;2.43;2.33;;;19.10;33.10;;;;;;5014525;28;20165;-73
2021/05/11 03:14:40;;;;;;;3.10;2.90;;;19.10;32.50;;;;;;5014567;28;20224;-73
2021/05/11 03:17:05;;;;;;;2.40;2.30;;;19.10;32.50;;;;;;5014405;28;20184;-73
2021/05/11 03:19:31;;;;;;;2.30;2.30;;;19.10;32.50;;;;;;5014645;28;20218;-73
2021/05/11 03:21:56;;;;;;;2.43;2.33;;;19.10;32.50;;;;;;5014497;28;20262;-73
2021/05/11 03:24:22;;;;;;;2.20;2.10;;;19.10;32.50;;;;;;5015181;28;20562;-72
2021/05/11 03:26:49;;;;;;;2.37;2.27;;;19.10;32.40;;;;;;5015312;28;20655;-73
2021/05/11 03:29:15;;;;;;;2.40;2.30;;;19.10;32.40;;;;;;5015799;28;20228;-73
2021/05/11 03:31:40;;;;;;;2.30;2.20;;;19.10;32.40;;;;;;5015070;28;20915;-73
2021/05/11 03:34:06;;;;;;;2.63;2.43;;;19.10;32.40;;;;;;5014410;28;20182;-73
2021/05/11 03:36:31;;;;;;;2.40;2.30;;;19.10;32.40;;;;;;5013941;28;20178;-73
2021/05/11 03:39:00;;;;;;;2.17;2.17;;;19.10;32.40;;;;;;5014020;28;20200;-73
2021/05/11 03:41:29;;;;;;;2.10;2.10;;;19.00;32.30;;;;;;5014098;28;20193;-73
2021/05/11 03:44:04;;;;;;;2.67;2.57;;;19.10;32.40;;;;;;5013898;28;20400;-73
2021/05/11 03:46:29;;;;;;;2.10;2.00;;;19.00;32.30;;;;;;5013910;28;20498;-74
2021/05/11 03:48:55;;;;;;;2.50;2.40;;;19.10;32.40;;;;;;5013760;28;20511;-73
2021/05/11 03:51:20;;;;;;;2.50;2.40;;;19.10;32.40;;;;;;5013965;28;20260;-73
2021/05/11 03:53:46;;;;;;;2.47;2.37;;;19.00;32.30;;;;;;5013894;28;20180;-73
2021/05/11 03:56:12;;;;;;;2.50;2.50;;;19.10;32.40;;;;;;5013666;28;20173;-73
2021/05/11 03:58:38;;;;;;;2.40;2.30;;;19.00;32.30;;;;;;5013645;28;20181;-72
2021/05/11 04:01:04;;;;;;;2.27;2.20;;;19.00;32.30;;;;;;5013159;28;20470;-73
2021/05/11 04:03:29;;;;;;;2.37;2.27;;;19.00;32.40;;;;;;5012971;28;20412;-73
2021/05/11 04:05:56;;;;;;;2.57;2.47;;;19.00;32.30;;;;;;5013464;28;20256;-73
2021/05/11 04:11:01;;;;;;;2.30;2.30;;;19.00;32.50;;;;;;5013601;28;20823;-73
2021/05/11 04:13:48;;;;;;;2.73;2.63;;;19.10;32.40;;;;;;5013453;28;20487;-73
2021/05/11 04:16:23;;;;;;;2.40;2.30;;;19.10;32.30;;;;;;5013102;28;20416;-73
2021/05/11 04:18:52;;;;;;;2.33;2.23;;;19.10;32.20;;;;;;5013241;28;20432;-73
2021/05/11 04:21:18;;;;;;;2.40;2.30;;;19.10;32.10;;;;;;5013298;28;20411;-73
2021/05/11 04:23:45;;;;;;;2.40;2.30;;;19.20;32.20;;;;;;5013206;28;20512;-73
2021/05/11 04:26:12;;;;;;;3.00;2.90;;;19.30;32.10;;;;;;5013100;28;20412;-73
2021/05/11 04:28:38;;;;;;;2.70;2.60;;;19.30;32.00;;;;;;5012798;28;20446;-73
2021/05/11 04:31:04;;;;;;;2.93;2.63;;;19.30;32.00;;;;;;5013268;28;20419;-73
2021/05/11 04:33:30;;;;;;;2.80;2.70;;;19.30;31.80;;;;;;5013163;28;20902;-73
2021/05/11 04:35:56;;;;;;;2.40;2.30;;;19.40;32.60;;;;;;5012994;28;20443;-74
2021/05/11 04:38:24;;;;;;;2.40;2.30;;;19.50;33.40;;;;;;5013141;28;20412;-74
2021/05/11 04:40:51;;;;;;;4.23;2.60;;;19.50;33.60;;;;;;5013115;28;20223;-74
2021/05/11 04:43:17;;;;;;;3.10;2.80;;;19.60;33.60;;;;;;5012971;28;20456;-73
2021/05/11 04:45:43;;;;;;;3.03;2.80;;;19.70;34.00;;;;;;5012768;28;20415;-73
2021/05/11 04:48:09;;;;;;;5.40;3.07;;;19.70;34.10;;;;;;5012607;28;20412;-73
2021/05/11 04:50:35;;;;;;;2.80;2.60;;;19.80;34.00;;;;;;5012114;28;20739;-72
2021/05/11 04:53:01;;;;;;;6.27;3.43;;;19.80;34.00;;;;;;5012250;28;20411;-73
2021/05/11 04:55:27;;;;;;;3.17;2.97;;;19.80;34.10;;;;;;5008708;28;20755;-75
2021/05/11 04:57:52;;;;;;;5.40;3.03;;;19.80;34.50;;;;;;5012167;28;20181;-73
2021/05/11 05:00:18;;;;;;;3.43;2.97;;;19.90;34.60;;;;;;5015139;28;20192;-73
2021/05/11 05:02:46;;;;;;;8.60;4.07;;;19.90;34.70;;;;;;5012351;28;20714;-73
2021/05/11 05:05:15;;;;;;;5.77;3.80;;;19.90;35.30;;;;;;5011991;28;20903;-74
2021/05/11 05:07:41;;;;;;;5.50;3.30;;;19.90;35.60;;;;;;5012515;28;20985;-73
2021/05/11 05:10:08;;;;;;;4.83;3.30;;;19.90;36.00;;;;;;5008606;28;20524;-74
2021/05/11 05:12:34;;;;;;;5.43;3.40;;;19.90;36.00;;;;;;4992406;28;20484;-74
2021/05/11 05:15:00;;;;;;;4.67;3.77;;;19.90;35.90;;;;;;4991781;28;20441;-73
2021/05/11 05:17:26;;;;;;;4.33;3.90;;;20.00;36.50;;;;;;4991212;28;20424;-74
2021/05/11 05:19:52;;;;;;;5.43;4.93;;;19.90;36.50;;;;;;4992352;28;20433;-72
2021/05/11 05:22:18;;;;;;;7.07;6.63;;;19.90;36.80;;;;;;4992405;28;20206;-73
2021/05/11 05:29:42;;;;;;;10.77;9.90;;;19.90;36.30;;;;;;4991890;28;20822;-74
2021/05/11 05:32:08;;;;;;;16.13;14.83;;;19.90;36.40;;;;;;4992680;28;20907;-74
2021/05/11 05:34:34;;;;;;;15.43;14.33;;;19.90;36.70;;;;;;4992696;28;20506;-73
2021/05/11 05:36:59;;;;;;;15.53;14.43;;;19.90;36.70;;;;;;4992405;28;20496;-73
2021/05/11 05:39:44;;;;;;;15.47;14.17;;;19.90;36.40;;;;;;4992122;28;20256;-74
2021/05/11 05:42:10;;;;;;;14.33;12.97;;;19.90;36.20;;;;;;4992202;28;20614;-74
2021/05/11 05:44:36;;;;;;;14.40;13.23;;;19.90;36.30;;;;;;4991098;28;20417;-74
2021/05/11 05:47:02;;;;;;;14.40;13.50;;;19.80;36.10;;;;;;4992247;28;20530;-74
2021/05/11 05:49:33;;;;;;;13.20;12.40;;;19.80;36.10;;;;;;4992050;28;20194;-73
2021/05/11 05:52:06;;;;;;;13.63;12.70;;;19.80;36.10;;;;;;4992094;28;20417;-72
2021/05/11 05:54:31;;;;;;;13.37;12.17;;;19.80;36.00;;;;;;4992349;28;20444;-72
2021/05/11 05:56:57;;;;;;;11.53;10.73;;;19.80;36.10;;;;;;4990610;28;20421;-73
2021/05/11 05:59:22;;;;;;;11.67;10.77;;;19.70;36.00;;;;;;4992314;28;20249;-73
2021/05/11 06:01:49;;;;;;;12.07;11.33;;;19.70;35.90;;;;;;4991907;28;20206;-73
2021/05/11 06:04:19;;;;;;;11.27;10.57;;;19.60;35.70;;;;;;4992099;28;20173;-73
2021/05/11 06:06:46;;;;;;;11.63;10.80;;;19.60;35.60;;;;;;4992013;28;20409;-72
2021/05/11 06:09:22;;;;;;;11.40;10.80;;;19.60;35.70;;;;;;4992199;28;20432;-73
2021/05/11 06:11:57;;;;;;;11.30;10.30;;;19.60;35.50;;;;;;4992068;28;20415;-74
2021/05/11 06:17:20;;;;;;;11.03;10.23;;;19.50;35.50;;;;;;4992433;28;20521;-73
2021/05/11 06:19:48;;;;;;;10.03;9.50;;;19.50;35.40;;;;;;4991722;28;20432;-72
2021/05/11 06:22:15;;;;;;;10.70;9.90;;;19.50;35.30;;;;;;4992069;28;20874;-73
2021/05/11 06:24:42;;;;;;;9.33;8.73;;;19.50;35.30;;;;;;4991971;28;20501;-73
2021/05/11 06:27:09;;;;;;;9.43;8.93;;;19.50;35.30;;;;;;4994204;28;20440;-73
2021/05/11 06:29:38;;;;;;;9.90;9.30;;;19.50;35.40;;;;;;4995534;28;20460;-73
2021/05/11 06:32:05;;;;;;;9.83;9.13;;;19.50;35.40;;;;;;4995702;28;20428;-73
2021/05/11 06:34:31;;;;;;;9.67;8.87;;;19.50;35.30;;;;;;4994991;28;20894;-72
2021/05/11 06:36:57;;;;;;;10.03;9.00;;;19.50;35.20;;;;;;4995344;28;20492;-73
2021/05/11 06:39:22;;;;;;;8.80;8.20;;;19.50;35.30;;;;;;4995520;28;20520;-72
2021/05/11 06:41:53;;;;;;;8.63;7.93;;;19.50;35.30;;;;;;4995137;28;20740;-72
2021/05/11 06:49:38;;;;;;;8.50;7.90;;;19.50;35.30;;;;;;4995087;28;20437;-72
2021/05/11 06:54:48;;;;;;;8.00;7.50;;;19.50;35.30;;;;;;4995515;28;20517;-72
2021/05/11 06:57:14;;;;;;;9.63;8.83;;;19.50;35.30;;;;;;4995011;28;20433;-72
2021/05/11 06:59:39;;;;;;;9.60;7.13;;;19.50;36.00;;;;;;4995555;28;20186;-72
2021/05/11 07:02:05;;;;;;;9.30;7.93;;;19.50;35.30;;;;;;4995771;28;20198;-72
2021/05/11 07:04:30;;;;;;;8.17;7.53;;;19.50;35.30;;;;;;4996837;28;20660;-71
2021/05/11 07:06:58;;;;;;;6.70;6.23;;;19.50;35.30;;;;;;4994542;28;20174;-72
2021/05/11 07:09:51;;;;;;;7.70;7.10;;;19.50;35.30;;;;;;4995728;28;20182;-72
2021/05/11 07:15:02;;;;;;;7.63;7.10;;;19.50;35.50;;;;;;4994773;28;20467;-72
2021/05/11 07:17:28;;;;;;;7.70;6.83;;;19.40;35.40;;;;;;4994496;28;20814;-72
2021/05/11 07:19:55;;;;;;;7.57;6.97;;;19.40;35.30;;;;;;4994655;28;20487;-71
2021/05/11 07:22:21;;;;;;;6.57;6.10;;;19.40;35.30;;;;;;4994735;28;20202;-71
2021/05/11 07:24:50;;;;;;;7.73;6.97;;;19.40;35.30;;;;;;4994794;28;20528;-72
2021/05/11 07:27:36;;;;;;;7.03;6.43;;;19.40;35.30;;;;;;4994279;28;20548;-72
2021/05/11 07:30:12;;;;;;;6.40;6.00;;;19.40;35.30;;;;;;4994471;28;20444;-72
2021/05/11 07:32:39;;;;;;;7.87;7.20;;;19.40;35.30;;;;;;4994301;28;20492;-72
2021/05/11 07:35:05;;;;;;;6.57;6.17;;;19.50;35.30;;;;;;4994305;28;20844;-72
2021/05/11 07:37:31;;;;;;;7.60;7.10;;;19.50;35.40;;;;;;4993518;28;20479;-72
2021/05/11 07:39:56;;;;;;;5.97;5.67;;;19.40;36.00;;;;;;4994326;28;20847;-71
2021/05/11 07:42:22;;;;;;;6.37;5.87;;;19.40;35.30;;;;;;4994095;28;20205;-71
2021/05/11 07:44:50;;;;;;;6.57;6.10;;;19.40;35.30;;;;;;4994193;28;20174;-72
2021/05/11 07:47:25;;;;;;;6.07;5.60;;;19.40;35.30;;;;;;4994199;28;20272;-72
2021/05/11 07:50:21;;;;;;;7.27;6.57;;;19.40;35.40;;;;;;4992974;28;20483;-72
2021/05/11 08:04:51;;;;;;;6.63;6.13;;;19.40;35.20;;;;;;5013247;28;20412;-73
2021/05/11 08:17:37;;;;;;;7.90;7.17;;;19.40;35.10;;;;;;4989803;28;20416;-72
2021/05/11 08:20:14;;;;;;;6.20;5.70;;;19.30;34.90;;;;;;4991685;28;20429;-72
2021/05/11 08:28:22;;;;;;;6.10;5.80;;;19.30;34.80;;;;;;4991447;28;20420;-72
2021/05/11 08:30:47;;;;;;;7.23;6.37;;;19.30;34.80;;;;;;4991134;28;20437;-72
2021/05/11 08:33:13;;;;;;;6.60;6.10;;;19.30;34.70;;;;;;4991195;28;20182;-72
2021/05/11 08:35:38;;;;;;;6.57;5.20;;;19.30;34.60;;;;;;4991299;28;20173;-72
2021/05/11 08:38:04;;;;;;;6.57;6.07;;;19.30;34.60;;;;;;4990711;28;20182;-72
2021/05/11 08:40:30;;;;;;;6.37;5.97;;;19.30;34.70;;;;;;4990817;28;20687;-72
2021/05/11 08:43:00;;;;;;;6.47;5.97;;;19.30;34.60;;;;;;4991201;28;20210;-73
2021/05/11 08:45:26;;;;;;;5.93;5.63;;;19.30;34.50;;;;;;4990497;28;20459;-73
2021/05/11 08:47:54;;;;;;;5.40;5.10;;;19.30;34.50;;;;;;4990974;28;20441;-72
2021/05/11 08:50:44;;;;;;;6.70;6.10;;;19.30;34.50;;;;;;4990963;28;20456;-72
2021/05/11 08:53:51;;;;;;;8.07;5.70;;;19.30;34.60;;;;;;4989267;28;20413;-72
2021/05/11 09:04:38;;;;;;;5.50;5.20;;;19.30;34.50;;;;;;4991306;28;20754;-72
2021/05/11 09:07:41;;;;;;;5.70;5.40;;;19.30;34.50;;;;;;4990678;28;20413;-72
2021/05/11 09:26:52;;;;;;;5.37;5.07;;;19.30;34.30;;;;;;4990189;28;20413;-72
2021/05/11 09:29:47;;;;;;;5.83;5.43;;;19.30;34.30;;;;;;4990322;28;20585;-72
2021/05/11 10:10:37;;;;;;;4.50;4.20;;;19.40;33.80;;;;;;4993575;28;20468;-71
2021/05/11 10:49:28;;;;;;;4.97;4.70;;;19.30;33.90;;;;;;4993741;28;20436;-72
2021/05/11 10:52:13;;;;;;;5.47;5.07;;;19.30;33.80;;;;;;4993067;28;20428;-73
2021/05/11 10:54:56;;;;;;;5.77;5.33;;;19.30;33.80;;;;;;4992080;28;20417;-73
2021/05/11 10:57:43;;;;;;;6.00;5.60;;;19.30;33.80;;;;;;4991957;28;20728;-73
2021/05/11 11:00:22;;;;;;;4.73;4.50;;;19.30;33.80;;;;;;4992923;28;20834;-72
2021/05/11 11:03:13;;;;;;;5.87;4.80;;;19.30;33.80;;;;;;4993767;28;20460;-72
2021/05/11 11:05:45;;;;;;;5.20;4.97;;;19.30;33.70;;;;;;4992934;28;20891;-73
2021/05/11 11:08:37;;;;;;;5.33;4.83;;;19.30;33.80;;;;;;5008639;28;20422;-73
2021/05/11 11:11:16;;;;;;;5.60;5.30;;;19.30;33.80;;;;;;4997684;28;20415;-74
2021/05/11 11:13:48;;;;;;;6.33;5.87;;;19.30;33.80;;;;;;4992973;28;20416;-73
2021/05/11 11:16:14;;;;;;;5.03;4.73;;;19.20;33.70;;;;;;5003768;28;20826;-73
2021/05/11 11:18:40;;;;;;;5.30;4.90;;;19.30;33.90;;;;;;4992893;28;20405;-74
2021/05/11 11:22:01;;;;;;;6.70;6.00;;;19.20;33.80;;;;;;4992403;28;21071;-73
2021/05/11 11:23:55;;;;;;;7.03;5.10;;;19.20;33.80;;;;;;4992298;28;20435;-72
2021/05/11 11:26:39;;;;;;;5.60;5.20;;;19.20;33.80;;;;;;4992780;28;20508;-73
2021/05/11 11:29:09;;;;;;;6.00;5.50;;;19.30;33.80;;;;;;4992784;28;20479;-73
2021/05/11 11:31:38;;;;;;;5.90;5.60;;;19.20;33.80;;;;;;4993498;28;20532;-73
2021/05/11 11:34:33;;;;;;;5.50;5.10;;;19.20;33.80;;;;;;4992906;28;20416;-72
2021/05/11 11:37:04;;;;;;;5.83;5.40;;;19.20;33.80;;;;;;4992401;28;20504;-72
2021/05/11 11:39:43;;;;;;;6.03;5.63;;;19.20;33.80;;;;;;4992839;28;20448;-73
2021/05/11 11:42:17;;;;;;;5.43;5.13;;;19.20;33.70;;;;;;4993307;28;20492;-73
2021/05/11 11:44:42;;;;;;;5.87;5.50;;;19.20;33.70;;;;;;4992531;28;20416;-73
2021/05/11 11:47:12;;;;;;;5.27;4.97;;;19.20;33.80;;;;;;4992924;28;20504;-74
2021/05/11 11:49:48;;;;;;;5.13;4.83;;;19.20;33.80;;;;;;4991733;28;20201;-74
2021/05/11 11:52:22;;;;;;;5.80;5.40;;;19.20;33.70;;;;;;4992923;28;20420;-73
2021/05/11 11:55:03;;;;;;;6.13;5.70;;;19.20;33.70;;;;;;4992736;28;20438;-72
2021/05/11 11:57:48;;;;;;;5.67;5.37;;;19.20;33.70;;;;;;4992953;28;20412;-72
2021/05/11 12:00:21;;;;;;;5.30;5.00;;;19.20;33.80;;;;;;4992398;28;20428;-71
2021/05/11 12:02:51;;;;;;;5.37;4.97;;;19.20;33.80;;;;;;4992483;28;20455;-72
2021/05/11 12:05:17;;;;;;;5.30;5.00;;;19.20;33.80;;;;;;4992094;28;20444;-72
2021/05/11 12:10:27;;;;;;;4.93;4.70;;;19.20;33.70;;;;;;4992393;28;20272;-73
2021/05/11 12:12:55;;;;;;;5.27;4.87;;;19.20;33.70;;;;;;4990502;28;20428;-72
2021/05/11 12:15:21;;;;;;;5.83;5.53;;;19.20;33.70;;;;;;4991829;28;20421;-73
2021/05/11 12:18:18;;;;;;;5.27;4.90;;;19.20;33.70;;;;;;4992615;28;20417;-72
2021/05/11 12:20:45;;;;;;;6.00;5.50;;;19.20;33.60;;;;;;4990833;28;20460;-75
2021/05/11 12:23:16;;;;;;;5.33;5.03;;;19.20;33.70;;;;;;4990357;28;20522;-74
2021/05/11 12:25:53;;;;;;;5.43;5.13;;;19.20;33.70;;;;;;4991366;28;20488;-75
2021/05/11 12:28:35;;;;;;;7.03;5.60;;;19.20;33.70;;;;;;4991541;28;20409;-72
2021/05/11 12:31:03;;;;;;;5.93;5.30;;;19.20;33.70;;;;;;4992242;28;20438;-72
2021/05/11 12:33:38;;;;;;;5.83;5.30;;;19.20;33.70;;;;;;4991753;28;20443;-73
2021/05/11 12:36:25;;;;;;;6.13;5.63;;;19.20;33.60;;;;;;4991743;28;20524;-72
2021/05/11 12:39:13;;;;;;;4.93;4.63;;;19.20;33.70;;;;;;4992121;28;20445;-72
2021/05/11 12:41:39;;;;;;;5.47;5.07;;;19.20;33.70;;;;;;4990051;28;20424;-73
2021/05/11 12:44:05;;;;;;;5.97;5.57;;;19.20;33.60;;;;;;4991776;28;20405;-72
2021/05/11 12:46:36;;;;;;;5.53;5.27;;;19.20;33.70;;;;;;4990753;28;20193;-73
2021/05/11 12:49:04;;;;;;;5.83;5.43;;;19.20;33.70;;;;;;4988346;28;20440;-74
2021/05/11 12:51:37;;;;;;;5.80;5.50;;;19.20;33.70;;;;;;4991323;28;20416;-74
2021/05/11 12:54:23;;;;;;;5.77;5.40;;;19.20;33.70;;;;;;4991222;28;20405;-74
2021/05/11 12:59:28;;;;;;;6.70;6.30;;;19.20;33.70;;;;;;4991033;28;20506;-73
2021/05/11 13:02:03;;;;;;;5.73;5.33;;;19.20;33.70;;;;;;4988403;28;20449;-74
2021/05/11 13:04:59;;;;;;;5.20;4.90;;;19.20;33.70;;;;;;4990252;28;21124;-72
2021/05/11 13:15:36;;;;;;;5.83;5.43;;;19.20;33.70;;;;;;4989323;28;20505;-73
2021/05/11 13:21:02;;;;;;;5.57;5.10;;;19.20;33.80;;;;;;4986439;28;20441;-73
2021/05/11 13:26:16;;;;;;;5.17;4.87;;;19.20;33.90;;;;;;4987731;28;20984;-73
2021/05/11 13:36:42;;;;;;;5.53;5.23;;;19.20;33.80;;;;;;4984515;28;20794;-73
2021/05/11 13:39:10;;;;;;;5.30;4.93;;;19.20;33.80;;;;;;4997442;28;20233;-72
2021/05/11 13:41:36;;;;;;;5.67;5.27;;;19.20;33.80;;;;;;5000769;28;20420;-72
2021/05/11 13:44:02;;;;;;;6.00;5.20;;;19.20;33.80;;;;;;4989632;28;20769;-73
2021/05/11 13:46:28;;;;;;;5.70;5.40;;;19.20;33.80;;;;;;4990477;28;20424;-72
2021/05/11 13:48:53;;;;;;;4.80;4.50;;;19.10;33.80;;;;;;4989993;28;20200;-74
2021/05/11 13:51:20;;;;;;;5.37;5.07;;;19.20;33.80;;;;;;4989330;28;20216;-73
2021/05/11 13:53:50;;;;;;;6.13;5.73;;;19.10;33.70;;;;;;4991119;28;20178;-74
2021/05/11 13:56:27;;;;;;;5.70;5.30;;;19.20;33.80;;;;;;4990902;28;20423;-73
2021/05/11 14:04:38;;;;;;;5.87;5.47;;;19.20;33.90;;;;;;4968815;28;20444;-73
2021/05/11 14:07:04;;;;;;;5.10;4.80;;;19.20;33.80;;;;;;4986096;28;20744;-73
2021/05/11 14:09:29;;;;;;;5.50;4.97;;;19.10;33.70;;;;;;4990849;28;20189;-73
2021/05/11 14:11:55;;;;;;;5.50;5.10;;;19.10;34.00;;;;;;4991351;28;20253;-72
2021/05/11 14:14:21;;;;;;;5.40;5.10;;;19.20;34.00;;;;;;4992360;28;20170;-73
2021/05/11 14:16:47;;;;;;;4.93;4.57;;;19.20;34.20;;;;;;4991274;28;20421;-72
2021/05/11 14:19:14;;;;;;;5.70;5.40;;;19.20;34.20;;;;;;4990578;28;20256;-72
2021/05/11 14:21:40;;;;;;;5.27;4.97;;;19.20;34.20;;;;;;4991035;28;20402;-73
2021/05/11 14:24:07;;;;;;;5.47;4.97;;;19.20;34.20;;;;;;4990273;28;20628;-73
2021/05/11 14:26:33;;;;;;;6.10;5.70;;;19.20;34.00;;;;;;4989639;28;20437;-72
2021/05/11 14:28:58;;;;;;;5.30;5.00;;;19.30;34.00;;;;;;4990212;28;20555;-72
2021/05/11 14:31:25;;;;;;;6.07;5.30;;;19.30;34.00;;;;;;4989495;28;20178;-72
2021/05/11 14:33:51;;;;;;;5.20;4.93;;;19.30;34.00;;;;;;4989845;28;20563;-73
2021/05/11 14:36:17;;;;;;;5.53;5.13;;;19.30;34.00;;;;;;4990167;28;20416;-73
2021/05/11 14:38:42;;;;;;;5.90;5.40;;;19.30;34.10;;;;;;4990771;28;20181;-73
2021/05/11 14:41:08;;;;;;;5.67;5.30;;;19.30;34.30;;;;;;4989851;28;20248;-74
2021/05/11 14:43:35;;;;;;;6.10;5.70;;;19.30;34.50;;;;;;4990004;28;20217;-72
2021/05/11 14:46:02;;;;;;;4.97;4.70;;;19.30;34.50;;;;;;4988851;28;20471;-73
2021/05/11 14:48:30;;;;;;;5.40;5.10;;;19.30;34.50;;;;;;4992797;28;20417;-73
2021/05/11 14:50:56;;;;;;;5.47;5.17;;;19.30;34.40;;;;;;4993709;28;20445;-72
2021/05/11 14:53:22;;;;;;;5.60;5.20;;;19.30;34.40;;;;;;4993614;28;20425;-73
2021/05/11 14:55:48;;;;;;;4.60;4.40;;;19.30;34.30;;;;;;4992549;28;20405;-73
2021/05/11 14:58:14;;;;;;;5.13;4.63;;;19.30;34.30;;;;;;4993397;28;20570;-73
2021/05/11 15:00:40;;;;;;;5.43;5.00;;;19.30;34.30;;;;;;4993256;28;20194;-73
2021/05/11 15:03:05;;;;;;;4.90;4.70;;;19.20;34.20;;;;;;4992977;28;20461;-72
2021/05/11 15:05:31;;;;;;;5.17;4.90;;;19.20;34.20;;;;;;4993048;28;20253;-73
2021/05/11 15:07:57;;;;;;;4.67;4.37;;;19.20;34.20;;;;;;4993148;28;20660;-73
2021/05/11 15:10:23;;;;;;;5.00;4.70;;;19.20;34.20;;;;;;4993017;28;20186;-73
2021/05/11 15:12:50;;;;;;;4.97;4.67;;;19.20;34.20;;;;;;4993437;28;20762;-72
2021/05/11 15:15:20;;;;;;;5.40;5.10;;;19.20;34.30;;;;;;4993112;28;20174;-72
2021/05/11 15:20:14;;;;;;;6.37;5.57;;;19.40;38.70;;;;;;4993344;28;20468;-72
2021/05/11 15:22:41;;;;;;;7.37;6.73;;;19.50;39.90;;;;;;4993213;28;20933;-72
2021/05/11 15:25:07;;;;;;;6.87;6.30;;;19.60;40.00;;;;;;4992590;28;20504;-73
2021/05/11 15:27:34;;;;;;;10.00;6.53;;;19.60;40.80;;;;;;4993340;28;20412;-72
2021/05/11 15:30:00;;;;;;;7.47;6.57;;;19.70;42.40;;;;;;4992566;28;20514;-73
2021/05/11 15:32:44;;;;;;;6.70;6.10;;;19.70;41.70;;;;;;4992016;28;20520;-73
2021/05/11 15:35:15;;;;;;;5.83;5.30;;;19.80;42.00;;;;;;4992383;28;20413;-73
2021/05/11 15:37:41;;;;;;;6.07;5.47;;;19.80;40.90;;;;;;4991388;28;20409;-73
2021/05/11 15:40:14;;;;;;;5.83;5.43;;;19.80;40.90;;;;;;4992522;28;20469;-73
2021/05/11 15:42:40;;;;;;;6.17;5.60;;;19.80;40.20;;;;;;4992549;28;20463;-72
2021/05/11 15:45:07;;;;;;;7.00;5.47;;;19.80;39.90;;;;;;4992510;28;20401;-73
2021/05/11 15:47:32;;;;;;;6.73;6.13;;;19.80;40.10;;;;;;4992514;28;20267;-72
2021/05/11 15:49:58;;;;;;;6.10;5.50;;;19.90;40.00;;;;;;4992302;28;20488;-72
2021/05/11 15:52:24;;;;;;;5.23;4.87;;;19.90;38.60;;;;;;4992540;28;20170;-72
2021/05/11 15:54:50;;;;;;;6.57;5.60;;;19.90;38.90;;;;;;4991518;28;20178;-73
2021/05/11 15:57:17;;;;;;;6.47;5.87;;;19.90;39.00;;;;;;4993250;28;20504;-72
2021/05/11 15:59:43;;;;;;;9.40;6.73;;;19.90;38.00;;;;;;4991531;28;21035;-73
2021/05/11 16:02:10;;;;;;;7.70;6.93;;;19.90;38.70;;;;;;4992552;28;21024;-72
2021/05/11 16:04:36;;;;;;;7.73;7.00;;;19.90;38.30;;;;;;4992591;28;20814;-73
2021/05/11 16:07:01;;;;;;;10.27;6.10;;;19.80;38.70;;;;;;4992330;28;20440;-73
2021/05/11 16:09:27;;;;;;;7.60;6.87;;;19.80;38.70;;;;;;4990796;28;20194;-72
2021/05/11 16:11:53;;;;;;;6.93;6.30;;;19.70;38.60;;;;;;4992124;28;20663;-71
2021/05/11 16:14:18;;;;;;;9.37;7.20;;;19.70;38.70;;;;;;4991852;28;20170;-71
2021/05/11 16:16:44;;;;;;;8.90;6.30;;;19.70;38.80;;;;;;4990071;28;20178;-72
2021/05/11 16:19:09;;;;;;;9.80;6.27;;;19.70;38.60;;;;;;4992240;28;20198;-72
2021/05/11 16:21:35;;;;;;;6.37;5.80;;;19.60;38.50;;;;;;4991934;28;20217;-72
2021/05/11 16:24:01;;;;;;;8.60;6.50;;;19.60;38.60;;;;;;4992094;28;20190;-72
2021/05/11 16:26:27;;;;;;;7.70;6.20;;;19.60;38.50;;;;;;4990216;28;20197;-73
2021/05/11 16:28:53;;;;;;;7.20;6.53;;;19.50;38.40;;;;;;4991812;28;20449;-73
2021/05/11 16:31:19;;;;;;;6.33;5.70;;;19.50;38.40;;;;;;4991783;28;20220;-73
2021/05/11 16:33:45;;;;;;;6.70;6.10;;;19.50;38.30;;;;;;4991698;28;20410;-74
2021/05/11 16:36:11;;;;;;;7.50;5.93;;;19.50;38.10;;;;;;4991511;28;20467;-73
2021/05/11 16:38:37;;;;;;;6.50;5.90;;;19.50;38.10;;;;;;4991774;28;20417;-73
2021/05/11 16:41:02;;;;;;;6.37;5.77;;;19.50;38.00;;;;;;4991334;28;20334;-73
2021/05/11 16:43:28;;;;;;;6.27;5.77;;;19.50;37.90;;;;;;4981577;28;20203;-72